This is the latest recevied weather packets stored in our database for station/object N3FWE. If no packets are shown the sender has not sent any weather packets the latest 10 day(s).
| Time | Temp. | Humidity | Pressure | Rain* | Wind** | Luminosity | Snow |
|---|---|---|---|---|---|---|---|
| 1777997414 | 27.22° C | 41% | 1010.6 hPa | 0 mm | - | - | - |
| 1777996814 | 27.22° C | 42% | 1010.6 hPa | 0 mm | - | - | - |
| 1777996214 | 27.22° C | 41% | 1010.6 hPa | 0 mm | - | - | - |
| 1777995613 | 27.22° C | 40% | 1010.5 hPa | 0 mm | - | - | - |
| 1777995015 | 27.22° C | 41% | 1010.5 hPa | 0 mm | - | - | - |
| 1777994414 | 26.67° C | 45% | 1010.5 hPa | 0 mm | - | - | - |
| 1777993813 | 26.11° C | 45% | 1010.5 hPa | 0 mm | - | - | - |
| 1777993214 | 25.56° C | 49% | 1010.6 hPa | 0 mm | - | - | - |
| 1777992613 | 25° C | 49% | 1010.6 hPa | 0 mm | - | - | - |
| 1777992013 | 24.44° C | 48% | 1010.9 hPa | 0 mm | - | - | - |
| 1777991414 | 23.89° C | 51% | 1011 hPa | 0 mm | - | - | - |
| 1777990814 | 23.89° C | 52% | 1011 hPa | 0 mm | - | - | - |
| 1777989614 | 22.78° C | 57% | 1011.3 hPa | 0 mm | - | - | - |
| 1777989013 | 22.22° C | 56% | 1011.4 hPa | 0 mm | - | - | - |
| 1777988414 | 21.11° C | 60% | 1011.5 hPa | 0 mm | - | - | - |
| 1777987814 | 20.56° C | 62% | 1011.5 hPa | 0 mm | - | - | - |
| 1777987213 | 20° C | 63% | 1011.6 hPa | 0 mm | - | - | - |
| 1777986614 | 18.89° C | 64% | 1011.6 hPa | 0 mm | - | - | - |
| 1777986014 | 18.89° C | 64% | 1011.7 hPa | 0 mm | - | - | - |
| 1777985414 | 18.33° C | 67% | 1011.7 hPa | 0 mm | - | - | - |
| 1777984813 | 17.78° C | 69% | 1011.7 hPa | 0 mm | - | - | - |
| 1777984214 | 17.22° C | 71% | 1011.8 hPa | 0 mm | - | - | - |
| 1777983614 | 16.11° C | 75% | 1011.8 hPa | 0 mm | - | - | - |
| 1777983014 | 15° C | 78% | 1011.6 hPa | 0 mm | - | - | - |
| 1777982414 | 14.44° C | 81% | 1011.7 hPa | 0 mm | - | - | - |
* Rain latest hour (hover to see other rain measurements)
** Current wind speed in m/s (hover to see current wind gust speed)